Knob Fork, West Virginia
Current Conditions -  °F | °C
As of 2:53 AM on Tuesday 21 Oct 2014 (Local Time) from KCKB Reporting Station
Overcast Overcast  
Wind Chill: 52°   Ceiling: 3600
Heat Index: 52°   Visibility: 10mi
Dew Point: 48°   Wind: 5mph
Humidity: 86%   Direction: 200°SSW
Pressure: 29.89"   Gusts: NA
Location:  39.6641°N, 80.5775°W
Report Text: KCKB 210653Z 20004KT 10SM OVC036 11/09 A2989 RMK AO2 SLP114 T01110089 $
Loading
Personal Weather Stations






























Interactive Weather Map
Tropical Storm Tracking
New forecast layout! Learn more

10-Day Weather Forecast

Advertisements
Track Severe Weather on mobile